createdAt,value
2023-04-18T00:00:23.673Z,19.00
2023-04-18T00:02:54.225Z,13.80
2023-04-18T00:05:22.001Z,15.60
2023-04-18T00:07:48.992Z,16.70
2023-04-18T00:10:16.060Z,15.10
2023-04-18T00:12:43.101Z,9.80
2023-04-18T00:15:10.329Z,12.10
2023-04-18T00:17:38.574Z,14.90
2023-04-18T00:20:12.898Z,12.90
2023-04-18T00:22:42.827Z,8.30
2023-04-18T00:25:11.137Z,8.20
2023-04-18T00:27:41.741Z,7.90
2023-04-18T00:30:09.436Z,12.80
2023-04-18T00:32:37.923Z,8.70
2023-04-18T00:35:05.945Z,12.30
2023-04-18T00:37:32.916Z,10.40
2023-04-18T00:39:59.703Z,10.00
2023-04-18T00:42:28.960Z,9.00
2023-04-18T00:44:55.722Z,9.30
2023-04-18T00:47:22.510Z,8.80
2023-04-18T00:49:49.600Z,10.80
2023-04-18T00:52:18.460Z,12.20
2023-04-18T00:54:45.396Z,9.40
2023-04-18T00:57:13.024Z,10.20
2023-04-18T00:59:40.041Z,9.70
2023-04-18T01:02:07.932Z,11.50
2023-04-18T01:04:34.958Z,8.80
2023-04-18T01:07:02.303Z,9.30
2023-04-18T01:09:29.558Z,12.10
2023-04-18T01:11:56.745Z,12.10
2023-04-18T01:14:24.123Z,11.20
2023-04-18T01:16:51.067Z,11.10
2023-04-18T01:19:19.064Z,10.70
2023-04-18T01:21:45.994Z,8.30
2023-04-18T01:24:17.759Z,8.30
2023-04-18T01:26:45.902Z,7.70
2023-04-18T01:29:12.728Z,6.60
2023-04-18T01:31:40.831Z,6.60
2023-04-18T01:34:08.409Z,8.90
2023-04-18T01:36:36.327Z,7.30
2023-04-18T01:39:03.512Z,7.90
2023-04-18T01:41:32.849Z,8.60
2023-04-18T01:44:00.136Z,7.60
2023-04-18T01:46:27.624Z,7.20
2023-04-18T01:48:54.729Z,6.30
2023-04-18T01:51:21.743Z,6.50
2023-04-18T01:53:48.581Z,7.90
2023-04-18T01:56:15.364Z,7.50
2023-04-18T01:58:42.156Z,9.50
2023-04-18T02:01:09.040Z,10.60
2023-04-18T02:03:35.997Z,7.90
2023-04-18T02:06:04.904Z,8.10
2023-04-18T02:08:35.611Z,8.50
2023-04-18T02:11:05.146Z,8.20
2023-04-18T02:13:32.380Z,9.30
2023-04-18T02:15:59.272Z,8.30
2023-04-18T02:18:26.728Z,8.50
2023-04-18T02:20:53.692Z,8.80
2023-04-18T02:23:21.881Z,8.60
2023-04-18T02:25:48.687Z,8.90
2023-04-18T02:28:17.515Z,8.90
2023-04-18T02:30:44.284Z,9.70
2023-04-18T02:33:11.089Z,8.70
2023-04-18T02:35:38.054Z,8.80
2023-04-18T02:38:04.898Z,10.50
2023-04-18T02:40:31.658Z,14.30
2023-04-18T02:42:59.494Z,9.90
2023-04-18T02:45:26.241Z,10.10
2023-04-18T02:47:56.523Z,10.20
2023-04-18T02:50:25.154Z,10.60
2023-04-18T02:52:52.835Z,11.20
2023-04-18T02:55:22.004Z,10.80
2023-04-18T02:57:48.884Z,10.90
2023-04-18T03:00:47.357Z,12.40
2023-04-18T03:03:36.144Z,11.70
2023-04-18T03:06:32.350Z,11.10
2023-04-18T03:09:00.958Z,11.00
2023-04-18T03:11:28.229Z,11.90
2023-04-18T03:13:57.641Z,12.20
2023-04-18T03:16:25.965Z,12.50
2023-04-18T03:18:53.764Z,13.90
2023-04-18T03:21:21.680Z,13.00
2023-04-18T03:23:48.611Z,12.60
2023-04-18T03:26:15.865Z,13.30
2023-04-18T03:28:45.433Z,14.90
2023-04-18T03:31:12.445Z,14.30
2023-04-18T03:33:42.393Z,15.60
2023-04-18T03:36:12.017Z,14.60
2023-04-18T03:38:40.627Z,14.80
2023-04-18T03:41:08.374Z,13.10
2023-04-18T03:43:36.654Z,12.30
2023-04-18T03:46:04.523Z,12.20
2023-04-18T03:48:37.444Z,13.70
2023-04-18T03:51:08.234Z,13.60
2023-04-18T03:53:36.419Z,11.40
2023-04-18T03:56:03.635Z,11.80
2023-04-18T03:58:49.202Z,10.00
2023-04-18T04:01:16.745Z,10.70
2023-04-18T04:03:44.183Z,9.70
2023-04-18T04:06:11.652Z,8.60
2023-04-18T04:08:38.815Z,7.60
2023-04-18T04:11:05.963Z,8.90
2023-04-18T04:13:33.246Z,8.30
2023-04-18T04:16:00.234Z,8.90
2023-04-18T04:18:31.196Z,9.00
2023-04-18T04:21:21.221Z,13.20
2023-04-18T04:23:51.138Z,8.80
2023-04-18T04:26:30.733Z,11.60
2023-04-18T04:29:03.780Z,9.30
2023-04-18T04:31:32.198Z,8.40
2023-04-18T04:33:59.429Z,9.00
2023-04-18T04:36:27.300Z,11.80
2023-04-18T04:38:55.430Z,13.80
2023-04-18T04:41:29.491Z,12.00
2023-04-18T04:43:56.344Z,10.80
2023-04-18T04:46:29.523Z,10.80
2023-04-18T04:48:57.395Z,10.40
2023-04-18T04:51:26.178Z,10.90
2023-04-18T04:53:52.958Z,10.00
2023-04-18T04:56:19.891Z,10.10
2023-04-18T04:58:47.279Z,11.60
2023-04-18T05:01:32.626Z,11.40
2023-04-18T05:03:59.555Z,12.00
2023-04-18T05:06:26.616Z,11.20
2023-04-18T05:08:53.607Z,11.40
2023-04-18T05:11:21.110Z,12.50
2023-04-18T05:13:47.808Z,13.40
2023-04-18T05:16:14.578Z,12.70
2023-04-18T05:18:41.631Z,10.50
2023-04-18T05:21:08.410Z,10.20
2023-04-18T05:23:37.057Z,10.80
2023-04-18T05:26:05.074Z,11.80
2023-04-18T05:28:32.684Z,11.10
2023-04-18T05:31:02.256Z,11.60
2023-04-18T05:33:30.308Z,11.50
2023-04-18T05:35:57.959Z,13.10
2023-04-18T05:38:25.357Z,13.70
2023-04-18T05:40:52.182Z,12.90
2023-04-18T05:43:19.591Z,11.50
2023-04-18T05:45:46.726Z,13.10
2023-04-18T05:48:13.969Z,12.30
2023-04-18T05:50:40.808Z,12.30
2023-04-18T05:53:07.625Z,13.80
2023-04-18T05:55:34.550Z,14.80
2023-04-18T05:58:01.390Z,13.90
2023-04-18T06:00:28.426Z,12.90
2023-04-18T06:02:55.377Z,13.90
2023-04-18T06:05:23.943Z,12.80
2023-04-18T06:07:53.422Z,13.30
2023-04-18T06:10:20.332Z,13.00
2023-04-18T06:12:47.080Z,28.00
2023-04-18T06:15:14.783Z,12.20
2023-04-18T06:17:41.607Z,17.90
2023-04-18T06:20:09.828Z,14.40
2023-04-18T06:22:36.785Z,13.30
2023-04-18T06:25:03.794Z,15.70
2023-04-18T06:27:31.882Z,11.50
2023-04-18T06:29:59.285Z,11.30
2023-04-18T06:32:28.963Z,10.10
2023-04-18T06:34:55.861Z,10.60
2023-04-18T06:37:22.739Z,10.90
2023-04-18T06:39:49.538Z,13.00
2023-04-18T06:42:16.340Z,14.30
2023-04-18T06:44:47.739Z,11.60
2023-04-18T06:47:14.677Z,12.30
2023-04-18T06:49:41.492Z,12.50
2023-04-18T06:52:08.265Z,13.80
2023-04-18T06:54:35.044Z,12.10
2023-04-18T06:57:03.771Z,12.00
2023-04-18T06:59:30.765Z,12.30
2023-04-18T07:01:57.605Z,13.20
2023-04-18T07:04:24.780Z,12.40
2023-04-18T07:06:52.013Z,14.50
2023-04-18T07:09:18.919Z,12.40
2023-04-18T07:11:45.789Z,13.10
2023-04-18T07:14:12.771Z,11.20
2023-04-18T07:16:39.826Z,13.00
2023-04-18T07:19:06.891Z,12.80
2023-04-18T07:21:33.707Z,11.40
2023-04-18T07:24:00.542Z,10.50
2023-04-18T07:26:27.718Z,11.60
2023-04-18T07:28:54.693Z,10.20
2023-04-18T07:31:21.579Z,11.50
2023-04-18T07:33:48.453Z,9.80
2023-04-18T07:36:15.345Z,10.20
2023-04-18T07:38:42.135Z,10.20
2023-04-18T07:41:08.935Z,11.00
2023-04-18T07:43:36.082Z,10.70
2023-04-18T07:46:03.119Z,8.80
2023-04-18T07:48:29.883Z,10.20
2023-04-18T07:50:56.708Z,10.60
2023-04-18T07:53:23.584Z,9.80
2023-04-18T07:55:50.559Z,9.50
2023-04-18T07:58:17.728Z,7.80
2023-04-18T08:00:45.021Z,10.70
2023-04-18T08:03:12.890Z,9.80
2023-04-18T08:05:41.463Z,8.90
2023-04-18T08:08:09.907Z,7.70
2023-04-18T08:10:39.255Z,7.70
2023-04-18T08:13:06.721Z,7.60
2023-04-18T08:15:33.661Z,8.90
2023-04-18T08:18:01.171Z,6.80
2023-04-18T08:20:28.138Z,6.10
2023-04-18T08:25:24.936Z,6.10
2023-04-18T08:27:53.927Z,4.90
2023-04-18T08:30:20.856Z,4.70
2023-04-18T08:32:47.731Z,5.50
2023-04-18T08:35:14.680Z,5.40
2023-04-18T08:37:41.941Z,4.70
2023-04-18T08:40:09.299Z,5.40
2023-04-18T08:42:37.382Z,5.80
2023-04-18T08:45:05.873Z,4.80
2023-04-18T08:47:35.361Z,5.70
2023-04-18T08:50:02.547Z,6.90
2023-04-18T08:52:31.175Z,6.10
2023-04-18T08:54:57.969Z,6.30
2023-04-18T08:57:27.008Z,5.20
2023-04-18T08:59:55.543Z,5.80
2023-04-18T09:02:23.470Z,3.90
2023-04-18T09:04:52.846Z,4.60
2023-04-18T09:07:27.982Z,4.90
2023-04-18T09:09:57.386Z,4.00
2023-04-18T09:12:26.649Z,3.30
2023-04-18T09:14:58.684Z,6.00
2023-04-18T09:19:59.494Z,4.40
2023-04-18T09:22:26.532Z,5.60
2023-04-18T09:24:57.421Z,4.50
2023-04-18T09:27:24.535Z,7.60
2023-04-18T09:29:54.760Z,6.50
2023-04-18T09:34:58.099Z,3.70
2023-04-18T09:37:26.559Z,3.50
2023-04-18T09:39:53.791Z,2.60
2023-04-18T09:42:21.738Z,1.80
2023-04-18T09:45:08.366Z,2.70
2023-04-18T09:47:36.848Z,0.60
2023-04-18T09:50:09.726Z,1.10
2023-04-18T09:52:41.353Z,0.90
2023-04-18T09:55:10.488Z,1.50
2023-04-18T09:57:41.441Z,1.50
2023-04-18T10:00:14.446Z,2.10
2023-04-18T10:02:49.036Z,3.00
2023-04-18T10:05:19.561Z,1.70
2023-04-18T10:07:49.826Z,2.50
2023-04-18T10:10:17.624Z,1.70
2023-04-18T10:12:48.004Z,1.90
2023-04-18T10:15:16.166Z,4.20
2023-04-18T10:17:56.102Z,4.10
2023-04-18T10:20:32.178Z,4.40
2023-04-18T10:22:59.919Z,2.40
2023-04-18T10:25:38.838Z,2.40
2023-04-18T10:28:10.085Z,5.10
2023-04-18T10:30:42.354Z,4.40
2023-04-18T10:33:41.096Z,2.50
2023-04-18T10:36:09.459Z,2.80
2023-04-18T10:38:45.417Z,2.50
2023-04-18T10:41:25.457Z,4.00
2023-04-18T10:44:23.009Z,2.40
2023-04-18T10:46:52.725Z,1.90
2023-04-18T10:49:26.050Z,1.70
2023-04-18T10:51:56.684Z,2.90
2023-04-18T10:54:30.859Z,2.70
2023-04-18T10:57:00.278Z,2.50
2023-04-18T10:59:29.998Z,2.50
2023-04-18T11:02:18.043Z,1.90
2023-04-18T11:04:51.430Z,5.20
2023-04-18T11:07:18.386Z,4.60
2023-04-18T11:09:57.342Z,2.10
2023-04-18T11:12:24.110Z,1.80
2023-04-18T11:14:55.271Z,1.90
2023-04-18T11:17:24.376Z,2.60
2023-04-18T11:19:59.403Z,1.40
2023-04-18T11:22:26.934Z,3.20
2023-04-18T11:25:00.990Z,2.40
2023-04-18T11:27:29.685Z,2.50
2023-04-18T11:29:57.644Z,1.80
2023-04-18T11:32:24.627Z,2.90
2023-04-18T11:34:53.519Z,1.40
2023-04-18T11:37:20.931Z,1.50
2023-04-18T11:39:48.127Z,1.40
2023-04-18T11:42:15.043Z,2.20
2023-04-18T11:44:46.050Z,2.80
2023-04-18T11:47:33.127Z,1.80
2023-04-18T11:50:00.926Z,1.60
2023-04-18T11:52:29.641Z,1.10
2023-04-18T11:54:58.670Z,4.00
2023-04-18T11:57:27.017Z,2.20
2023-04-18T11:59:59.546Z,0.90
2023-04-18T12:02:39.011Z,0.90
2023-04-18T12:05:06.665Z,1.60
2023-04-18T12:07:35.210Z,1.50
2023-04-18T12:10:04.448Z,2.30
2023-04-18T12:12:31.346Z,1.30
2023-04-18T12:14:59.992Z,1.10
2023-04-18T12:17:28.098Z,1.70
2023-04-18T12:19:55.595Z,2.50
2023-04-18T12:22:42.990Z,2.90
2023-04-18T12:25:24.220Z,1.30
2023-04-18T12:27:55.950Z,1.30
2023-04-18T12:30:31.073Z,1.20
2023-04-18T12:33:00.163Z,1.50
2023-04-18T12:35:28.076Z,1.20
2023-04-18T12:37:57.428Z,1.30
2023-04-18T12:40:26.385Z,2.00
2023-04-18T12:42:54.576Z,3.10
2023-04-18T12:45:22.942Z,1.10
2023-04-18T12:47:51.668Z,1.90
2023-04-18T12:50:23.468Z,1.30
2023-04-18T12:52:55.858Z,6.10
2023-04-18T12:55:25.945Z,2.30
2023-04-18T12:57:54.564Z,1.90
2023-04-18T13:00:23.566Z,1.90
2023-04-18T13:02:52.343Z,0.40
2023-04-18T13:05:22.752Z,1.40
2023-04-18T13:07:49.898Z,0.60
2023-04-18T13:10:19.059Z,0.90
2023-04-18T13:12:46.957Z,0.80
2023-04-18T13:15:13.824Z,1.50
2023-04-18T13:17:40.673Z,0.90
2023-04-18T13:20:15.208Z,0.90
2023-04-18T13:22:43.388Z,1.40
2023-04-18T13:25:11.148Z,2.20
2023-04-18T13:27:41.429Z,1.20
2023-04-18T13:30:10.791Z,0.70
2023-04-18T13:32:39.147Z,2.30
2023-04-18T13:35:08.796Z,2.60
2023-04-18T13:37:35.919Z,1.90
2023-04-18T13:40:06.929Z,0.80
2023-04-18T13:42:35.911Z,3.70
2023-04-18T13:45:03.305Z,0.70
2023-04-18T13:47:30.424Z,0.60
2023-04-18T13:49:57.952Z,0.40
2023-04-18T13:52:25.743Z,2.20
2023-04-18T13:54:52.927Z,3.30
2023-04-18T13:57:19.894Z,0.60
2023-04-18T13:59:46.947Z,1.80
2023-04-18T14:02:13.954Z,0.60
2023-04-18T14:04:41.032Z,0.90
2023-04-18T14:07:09.200Z,1.70
2023-04-18T14:09:36.024Z,1.20
2023-04-18T14:12:02.874Z,0.80
2023-04-18T14:14:29.900Z,1.20
2023-04-18T14:16:56.923Z,0.90
2023-04-18T14:19:23.980Z,1.00
2023-04-18T14:21:50.925Z,0.80
2023-04-18T14:24:17.776Z,1.90
2023-04-18T14:26:44.679Z,1.30
2023-04-18T14:29:11.722Z,1.00
2023-04-18T14:31:38.629Z,1.70
2023-04-18T14:34:06.564Z,0.80
2023-04-18T14:36:33.390Z,0.30
2023-04-18T14:39:00.567Z,1.30
2023-04-18T14:41:27.643Z,0.80
2023-04-18T14:43:54.460Z,0.60
2023-04-18T14:46:21.470Z,0.60
2023-04-18T14:48:48.295Z,1.40
2023-04-18T14:51:16.914Z,1.90
2023-04-18T14:53:44.722Z,1.90
2023-04-18T14:56:11.709Z,0.70
2023-04-18T14:58:38.566Z,1.10
2023-04-18T15:01:05.631Z,1.70
2023-04-18T15:03:33.391Z,1.10
2023-04-18T15:06:00.610Z,1.40
2023-04-18T15:08:27.769Z,1.10
2023-04-18T15:10:54.524Z,1.00
2023-04-18T15:13:21.313Z,0.60
2023-04-18T15:15:54.693Z,0.90
2023-04-18T15:18:21.726Z,1.70
2023-04-18T15:20:48.795Z,1.20
2023-04-18T15:23:16.006Z,0.70
2023-04-18T15:25:45.460Z,1.10
2023-04-18T15:28:16.182Z,1.10
2023-04-18T15:30:42.990Z,0.90
2023-04-18T15:33:11.275Z,0.70
2023-04-18T15:35:38.178Z,1.00
2023-04-18T15:38:05.056Z,0.90
2023-04-18T15:40:33.232Z,2.20
2023-04-18T15:43:00.316Z,0.70
2023-04-18T15:45:47.306Z,1.60
2023-04-18T15:48:14.135Z,2.60
2023-04-18T15:50:42.499Z,0.80
2023-04-18T15:53:09.505Z,0.60
2023-04-18T15:55:36.455Z,2.50
2023-04-18T15:58:03.582Z,0.90
2023-04-18T16:00:30.493Z,0.90
2023-04-18T16:02:57.808Z,1.90
2023-04-18T16:05:24.773Z,1.50
2023-04-18T16:07:53.999Z,1.30
2023-04-18T16:10:20.842Z,1.50
2023-04-18T16:12:47.651Z,1.00
2023-04-18T16:15:14.446Z,1.30
2023-04-18T16:17:41.749Z,1.10
2023-04-18T16:20:09.325Z,0.80
2023-04-18T16:22:36.988Z,1.70
2023-04-18T16:25:05.292Z,1.50
2023-04-18T16:27:33.068Z,2.30
2023-04-18T16:30:00.190Z,0.90
2023-04-18T16:32:27.092Z,1.80
2023-04-18T16:34:57.227Z,1.80
2023-04-18T16:37:24.054Z,2.20
2023-04-18T16:39:51.343Z,2.80
2023-04-18T16:42:18.357Z,2.20
2023-04-18T16:44:45.985Z,1.00
2023-04-18T16:47:12.794Z,0.90
2023-04-18T16:49:40.675Z,2.10
2023-04-18T16:52:07.542Z,0.70
2023-04-18T16:54:35.350Z,1.30
2023-04-18T16:57:03.022Z,0.80
2023-04-18T16:59:31.290Z,1.10
2023-04-18T17:02:01.029Z,1.20
2023-04-18T17:04:29.632Z,2.20
2023-04-18T17:06:57.036Z,0.90
2023-04-18T17:09:24.207Z,1.90
2023-04-18T17:16:58.062Z,2.00
2023-04-18T17:19:25.042Z,2.30
2023-04-18T17:21:51.955Z,1.80
2023-04-18T17:24:25.088Z,2.70
2023-04-18T17:26:53.220Z,4.50
2023-04-18T17:29:21.211Z,3.80
2023-04-18T17:31:54.872Z,5.50
2023-04-18T17:34:22.283Z,6.60
2023-04-18T17:36:49.165Z,3.20
2023-04-18T17:39:17.021Z,2.00
2023-04-18T17:41:45.265Z,1.50
2023-04-18T17:44:57.973Z,1.50
2023-04-18T17:48:03.097Z,2.00
2023-04-18T17:50:39.775Z,1.80
2023-04-18T17:53:07.781Z,2.20
2023-04-18T17:55:34.915Z,3.70
2023-04-18T17:58:01.820Z,2.30
2023-04-18T18:00:28.821Z,2.30
2023-04-18T18:02:58.009Z,2.60
2023-04-18T18:05:49.040Z,2.20
2023-04-18T18:08:16.126Z,3.70
2023-04-18T18:10:43.050Z,3.60
2023-04-18T18:13:10.033Z,2.60
2023-04-18T18:15:36.922Z,1.80
2023-04-18T18:18:04.663Z,2.30
2023-04-18T18:20:31.593Z,2.10
2023-04-18T18:23:24.444Z,3.10
2023-04-18T18:25:52.199Z,3.20
2023-04-18T18:28:19.292Z,2.70
2023-04-18T18:30:46.115Z,4.10
2023-04-18T18:33:14.452Z,3.00
2023-04-18T18:35:41.997Z,3.10
2023-04-18T18:38:09.407Z,2.80
2023-04-18T18:40:39.725Z,2.60
2023-04-18T18:43:06.501Z,3.70
2023-04-18T18:45:35.553Z,7.30
2023-04-18T18:48:04.077Z,2.60
2023-04-18T18:50:31.041Z,3.90
2023-04-18T18:53:22.058Z,3.10
2023-04-18T18:55:49.445Z,2.70
2023-04-18T18:58:16.205Z,1.50
2023-04-18T19:00:42.976Z,2.40
2023-04-18T19:03:09.924Z,1.60
2023-04-18T19:05:36.861Z,2.30
2023-04-18T19:08:05.778Z,2.40
2023-04-18T19:10:32.608Z,3.40
2023-04-18T19:13:00.337Z,2.50
2023-04-18T19:15:27.309Z,4.20
2023-04-18T19:17:54.104Z,2.00
2023-04-18T19:20:21.038Z,1.80
2023-04-18T19:22:47.831Z,1.70
2023-04-18T19:25:14.644Z,1.60
2023-04-18T19:27:42.666Z,1.90
2023-04-18T19:30:29.897Z,2.00
2023-04-18T19:32:56.854Z,1.50
2023-04-18T19:35:23.705Z,3.10
2023-04-18T19:37:50.514Z,2.70
2023-04-18T19:40:17.318Z,3.30
2023-04-18T19:42:44.041Z,3.00
2023-04-18T19:45:12.314Z,3.10
2023-04-18T19:47:44.334Z,5.10
2023-04-18T19:50:11.700Z,4.90
2023-04-18T19:52:38.506Z,3.40
2023-04-18T19:55:05.586Z,3.80
2023-04-18T19:57:39.026Z,2.90
2023-04-18T20:00:11.260Z,2.90
2023-04-18T20:02:43.485Z,2.50
2023-04-18T20:05:10.837Z,2.50
2023-04-18T20:07:37.759Z,2.60
2023-04-18T20:10:05.320Z,4.30
2023-04-18T20:12:32.170Z,2.50
2023-04-18T20:14:59.067Z,3.20
2023-04-18T20:17:26.469Z,3.20
2023-04-18T20:19:57.046Z,3.10
2023-04-18T20:22:26.946Z,2.50
2023-04-18T20:24:57.184Z,3.20
2023-04-18T20:27:24.434Z,2.70
2023-04-18T20:29:51.218Z,3.60
2023-04-18T20:32:18.137Z,2.90
2023-04-18T20:34:46.719Z,3.60
2023-04-18T20:37:18.692Z,4.00
2023-04-18T20:39:45.638Z,4.10
2023-04-18T20:42:14.729Z,3.70
2023-04-18T20:44:43.424Z,3.20
2023-04-18T20:47:10.668Z,3.80
2023-04-18T20:49:38.184Z,1.90
2023-04-18T20:52:09.046Z,2.30
2023-04-18T20:54:35.854Z,2.00
2023-04-18T20:57:02.756Z,1.40
2023-04-18T20:59:29.700Z,2.80
2023-04-18T21:01:56.664Z,1.60
2023-04-18T21:04:23.793Z,2.20
2023-04-18T21:06:51.069Z,2.70
2023-04-18T21:09:18.052Z,2.50
2023-04-18T21:11:44.897Z,0.90
2023-04-18T21:14:11.756Z,0.70
2023-04-18T21:16:39.862Z,1.20
2023-04-18T21:19:09.164Z,0.80
2023-04-18T21:21:36.065Z,1.10
2023-04-18T21:24:05.122Z,1.00
2023-04-18T21:26:31.946Z,0.70
2023-04-18T21:29:01.091Z,0.50
2023-04-18T21:31:30.427Z,1.20
2023-04-18T21:33:59.220Z,0.60
2023-04-18T21:36:27.809Z,0.60
2023-04-18T21:38:59.185Z,0.50
2023-04-18T21:41:26.679Z,0.70
2023-04-18T21:43:53.801Z,0.30
2023-04-18T21:46:21.132Z,0.30
2023-04-18T21:48:48.348Z,0.40
2023-04-18T21:51:16.903Z,0.60
2023-04-18T21:53:44.131Z,0.20
2023-04-18T21:56:11.314Z,0.50
2023-04-18T21:58:38.206Z,0.20
2023-04-18T22:02:18.357Z,0.40
2023-04-18T22:04:45.184Z,0.60
2023-04-18T22:07:12.539Z,0.60
2023-04-18T22:09:39.879Z,0.40
2023-04-18T22:12:07.006Z,1.00
2023-04-18T22:14:34.114Z,0.30
2023-04-18T22:17:04.858Z,0.70
2023-04-18T22:19:31.941Z,0.60
2023-04-18T22:21:58.862Z,0.40
2023-04-18T22:24:28.558Z,0.60
2023-04-18T22:26:55.439Z,1.60
2023-04-18T22:29:22.235Z,0.60
2023-04-18T22:31:48.998Z,1.00
2023-04-18T22:34:16.072Z,0.80
2023-04-18T22:36:43.960Z,0.50
2023-04-18T22:39:12.211Z,0.40
2023-04-18T22:41:39.096Z,1.40
2023-04-18T22:44:06.025Z,1.60
2023-04-18T22:46:33.137Z,0.60
2023-04-18T22:49:00.023Z,0.80
2023-04-18T22:51:28.710Z,0.90
2023-04-18T22:53:56.347Z,1.90
2023-04-18T22:56:23.398Z,1.10
2023-04-18T22:58:50.160Z,0.70
2023-04-18T23:01:17.094Z,0.40
2023-04-18T23:03:43.979Z,1.00
2023-04-18T23:06:11.114Z,1.00
2023-04-18T23:08:37.908Z,0.90
2023-04-18T23:11:04.759Z,1.20
2023-04-18T23:13:31.536Z,1.60
2023-04-18T23:15:58.434Z,1.10
2023-04-18T23:18:25.193Z,0.80
2023-04-18T23:20:52.101Z,0.60
2023-04-18T23:23:18.877Z,0.70
2023-04-18T23:25:45.828Z,1.50
2023-04-18T23:28:13.807Z,1.90
2023-04-18T23:30:40.675Z,0.80
2023-04-18T23:33:08.544Z,1.10
2023-04-18T23:35:35.447Z,1.00
2023-04-18T23:38:02.230Z,0.70
2023-04-18T23:40:28.968Z,0.70
2023-04-18T23:42:55.753Z,1.20
2023-04-18T23:45:24.504Z,0.80
2023-04-18T23:47:51.789Z,1.20
2023-04-18T23:50:18.674Z,0.70
2023-04-18T23:52:45.624Z,0.80
2023-04-18T23:55:12.415Z,1.90
2023-04-18T23:57:39.180Z,0.40
